La Loma, New Mexico
Current Conditions -  °F | °C
As of 8:53 AM on Friday 28 Nov 2014 (Local Time) from KLVS Reporting Station
Clear Clear  
Wind Chill: 52°   Ceiling: Unl
Heat Index: 52°   Visibility: 10mi
Dew Point:   Wind: 13mph
Humidity: 16%   Direction: 180°S
Pressure: 30.2"   Gusts: NA
Location:  35.19°N, 105.06°W
Report Text: KLVS 281553Z AUTO 18011KT 10SM CLR 11/M14 A3020 RMK AO2 SLP164 T01111139
Loading
Personal Weather Stations






























Interactive Weather Map New forecast layout! Learn more

10-Day Weather Forecast

Advertisements
Track Severe Weather on mobile